createdAt,value
2023-01-26T00:01:16.614Z,78139.94
2023-01-26T00:03:43.838Z,78147.66
2023-01-26T00:06:12.963Z,78151.50
2023-01-26T00:08:42.176Z,78155.34
2023-01-26T00:11:10.572Z,78166.94
2023-01-26T00:13:37.417Z,78155.34
2023-01-26T00:16:05.105Z,78161.16
2023-01-26T00:18:31.966Z,78165.00
2023-01-26T00:21:00.619Z,78163.06
2023-01-26T00:23:29.514Z,78165.00
2023-01-26T00:25:56.395Z,78163.06
2023-01-26T00:28:23.154Z,78166.94
2023-01-26T00:30:49.863Z,78163.06
2023-01-26T00:33:17.255Z,78159.22
2023-01-26T00:35:44.576Z,78151.50
2023-01-26T00:38:14.811Z,78139.94
2023-01-26T00:40:41.378Z,78128.38
2023-01-26T00:43:08.009Z,78138.00
2023-01-26T00:45:35.549Z,78136.09
2023-01-26T00:48:05.504Z,78134.16
2023-01-26T00:50:33.189Z,78124.50
2023-01-26T00:53:00.366Z,78128.38
2023-01-26T00:55:32.371Z,78132.22
2023-01-26T00:58:07.654Z,78132.22
2023-01-26T01:00:36.700Z,78132.22
2023-01-26T01:03:05.768Z,78130.31
2023-01-26T01:05:33.074Z,78138.00
2023-01-26T01:08:00.019Z,78136.09
2023-01-26T01:10:27.611Z,78132.22
2023-01-26T01:12:55.128Z,78128.38
2023-01-26T01:15:23.871Z,78138.00
2023-01-26T01:17:50.575Z,78138.00
2023-01-26T01:20:17.372Z,78138.00
2023-01-26T01:22:44.014Z,78136.09
2023-01-26T01:25:10.811Z,78132.22
2023-01-26T01:27:37.475Z,78136.09
2023-01-26T01:30:08.072Z,78128.38
2023-01-26T01:32:37.353Z,78139.94
2023-01-26T01:35:04.254Z,78132.22
2023-01-26T01:37:31.487Z,78132.22
2023-01-26T01:39:58.053Z,78128.38
2023-01-26T01:42:25.461Z,78132.22
2023-01-26T01:45:23.246Z,78128.38
2023-01-26T01:47:50.512Z,78132.22
2023-01-26T01:50:17.900Z,78120.66
2023-01-26T01:52:44.827Z,78120.66
2023-01-26T01:55:14.589Z,78126.44
2023-01-26T01:57:45.761Z,78116.81
2023-01-26T02:00:18.653Z,78120.66
2023-01-26T02:03:14.198Z,78120.66
2023-01-26T02:05:59.092Z,78112.94
2023-01-26T02:08:31.870Z,78116.81
2023-01-26T02:11:02.220Z,78116.81
2023-01-26T02:13:31.678Z,78109.09
2023-01-26T02:15:59.772Z,78112.94
2023-01-26T02:18:27.502Z,78105.22
2023-01-26T02:20:59.157Z,78111.03
2023-01-26T02:23:31.721Z,78109.09
2023-01-26T02:25:58.151Z,78111.03
2023-01-26T02:28:27.420Z,78114.88
2023-01-26T02:30:55.939Z,78109.09
2023-01-26T02:33:25.675Z,78107.16
2023-01-26T02:35:55.672Z,78107.16
2023-01-26T02:38:25.214Z,78105.22
2023-01-26T02:41:00.282Z,78109.09
2023-01-26T02:43:28.208Z,78101.38
2023-01-26T02:45:55.447Z,78089.81
2023-01-26T02:48:41.212Z,78093.66
2023-01-26T02:51:08.197Z,78093.66
2023-01-26T02:53:34.982Z,78099.44
2023-01-26T02:56:01.572Z,78087.88
2023-01-26T02:58:28.259Z,78089.81
2023-01-26T03:00:54.976Z,78082.09
2023-01-26T03:03:25.376Z,78076.31
2023-01-26T03:05:52.368Z,78070.53
2023-01-26T03:08:19.039Z,78066.69
2023-01-26T03:10:47.555Z,78070.53
2023-01-26T03:13:14.488Z,78064.75
2023-01-26T03:15:52.584Z,78064.75
2023-01-26T03:18:41.686Z,78066.69
2023-01-26T03:21:35.045Z,78051.25
2023-01-26T03:24:20.974Z,78051.25
2023-01-26T03:27:07.416Z,78051.25
2023-01-26T03:29:34.835Z,78053.19
2023-01-26T03:32:02.340Z,78047.41
2023-01-26T03:34:29.645Z,78051.25
2023-01-26T03:36:57.219Z,78043.53
2023-01-26T03:39:42.705Z,78047.41
2023-01-26T03:42:28.575Z,78045.47
2023-01-26T03:45:13.823Z,78035.84
2023-01-26T03:48:01.209Z,78035.84
2023-01-26T03:50:48.089Z,78033.91
2023-01-26T03:53:36.631Z,78031.97
2023-01-26T03:56:23.184Z,78024.25
2023-01-26T03:58:57.082Z,78028.13
2023-01-26T04:01:28.134Z,78022.34
2023-01-26T04:04:16.411Z,78030.06
2023-01-26T04:07:05.292Z,78016.56
2023-01-26T04:09:33.005Z,78014.63
2023-01-26T04:12:00.357Z,78018.47
2023-01-26T04:14:49.915Z,78018.47
2023-01-26T04:17:37.928Z,78016.56
2023-01-26T04:20:24.872Z,78001.13
2023-01-26T04:22:51.607Z,78012.69
2023-01-26T04:25:20.930Z,78003.06
2023-01-26T04:27:47.747Z,77999.19
2023-01-26T04:30:17.025Z,77993.41
2023-01-26T04:32:44.214Z,77997.28
2023-01-26T04:35:11.232Z,77993.41
2023-01-26T04:37:39.050Z,77985.72
2023-01-26T04:40:06.996Z,77981.84
2023-01-26T04:42:35.351Z,77978.00
2023-01-26T04:45:04.578Z,77985.72
2023-01-26T04:47:31.843Z,77981.84
2023-01-26T04:49:58.528Z,77985.72
2023-01-26T04:52:25.262Z,77976.06
2023-01-26T04:54:51.822Z,77978.00
2023-01-26T04:57:21.133Z,77974.13
2023-01-26T04:59:50.246Z,77978.00
2023-01-26T05:02:18.615Z,77968.34
2023-01-26T05:04:45.224Z,77970.28
2023-01-26T05:07:13.612Z,77968.34
2023-01-26T05:09:40.387Z,77966.44
2023-01-26T05:12:43.439Z,77970.28
2023-01-26T05:15:32.585Z,77962.56
2023-01-26T05:18:13.226Z,77954.88
2023-01-26T05:20:55.588Z,77962.56
2023-01-26T05:23:26.911Z,77954.88
2023-01-26T05:26:14.613Z,77958.72
2023-01-26T05:28:53.401Z,77958.72
2023-01-26T05:31:20.096Z,77962.56
2023-01-26T05:33:47.216Z,77962.56
2023-01-26T05:36:19.382Z,77962.56
2023-01-26T05:38:47.212Z,77962.56
2023-01-26T05:41:15.042Z,77958.72
2023-01-26T05:43:54.659Z,77962.56
2023-01-26T05:46:34.559Z,77962.56
2023-01-26T05:49:02.354Z,77954.88
2023-01-26T05:51:29.755Z,77954.88
2023-01-26T05:53:56.404Z,77960.66
2023-01-26T05:56:23.032Z,77954.88
2023-01-26T05:58:54.897Z,77966.44
2023-01-26T06:01:21.652Z,77966.44
2023-01-26T06:03:55.802Z,77962.56
2023-01-26T06:06:22.763Z,77964.50
2023-01-26T06:09:00.017Z,77960.66
2023-01-26T06:11:33.262Z,77958.72
2023-01-26T06:14:26.040Z,77951.00
2023-01-26T06:16:54.421Z,77951.00
2023-01-26T06:19:21.070Z,77956.78
2023-01-26T06:21:53.500Z,77962.56
2023-01-26T06:24:20.712Z,77956.78
2023-01-26T06:26:49.336Z,77962.56
2023-01-26T06:29:17.312Z,77962.56
2023-01-26T06:31:44.107Z,77960.66
2023-01-26T06:34:11.691Z,77962.56
2023-01-26T06:36:41.584Z,77958.72
2023-01-26T06:39:12.213Z,77958.72
2023-01-26T06:41:43.107Z,77956.78
2023-01-26T06:44:10.184Z,77952.94
2023-01-26T06:46:37.057Z,77954.88
2023-01-26T06:49:05.067Z,77954.88
2023-01-26T06:51:56.116Z,77945.22
2023-01-26T06:54:31.264Z,77958.72
2023-01-26T06:57:21.135Z,77947.16
2023-01-26T07:00:07.047Z,77947.16
2023-01-26T07:02:54.418Z,77951.00
2023-01-26T07:05:21.133Z,77949.09
2023-01-26T07:07:47.813Z,77954.88
2023-01-26T07:10:14.587Z,77951.00
2023-01-26T07:12:43.714Z,77943.31
2023-01-26T07:15:11.751Z,77941.38
2023-01-26T07:17:40.107Z,77951.00
2023-01-26T07:20:07.897Z,77939.44
2023-01-26T07:22:34.482Z,77931.72
2023-01-26T07:25:01.079Z,77929.81
2023-01-26T07:27:27.627Z,77931.72
2023-01-26T07:29:54.178Z,77920.16
2023-01-26T07:32:20.819Z,77916.31
2023-01-26T07:34:48.275Z,77916.31
2023-01-26T07:37:16.343Z,77908.59
2023-01-26T07:39:42.954Z,77908.59
2023-01-26T07:42:11.148Z,77900.88
2023-01-26T07:44:48.964Z,77902.81
2023-01-26T07:47:15.807Z,77895.09
2023-01-26T07:49:42.381Z,77893.19
2023-01-26T07:52:09.243Z,77891.25
2023-01-26T07:54:35.821Z,77885.47
2023-01-26T07:57:02.370Z,77881.59
2023-01-26T07:59:29.009Z,77870.03
2023-01-26T08:01:55.677Z,77873.91
2023-01-26T08:04:22.315Z,77870.03
2023-01-26T08:06:51.477Z,77870.03
2023-01-26T08:09:18.458Z,77870.03
2023-01-26T08:11:45.051Z,77873.91
2023-01-26T08:14:11.599Z,77866.19
2023-01-26T08:16:38.236Z,77871.97
2023-01-26T08:19:04.927Z,77870.03
2023-01-26T08:21:31.516Z,77877.75
2023-01-26T08:24:01.970Z,77854.63
2023-01-26T08:26:29.408Z,77848.84
2023-01-26T08:28:56.069Z,77846.91
2023-01-26T08:31:24.265Z,77852.69
2023-01-26T08:33:52.428Z,77854.63
2023-01-26T08:36:22.105Z,77850.75
2023-01-26T08:38:49.542Z,77852.69
2023-01-26T08:41:16.097Z,77850.75
2023-01-26T08:43:42.736Z,77839.19
2023-01-26T08:46:10.189Z,77831.50
2023-01-26T08:48:37.416Z,77827.63
2023-01-26T08:51:05.558Z,77831.50
2023-01-26T08:53:33.511Z,77819.91
2023-01-26T08:56:05.859Z,77827.63
2023-01-26T08:58:33.716Z,77831.50
2023-01-26T09:01:04.731Z,77835.34
2023-01-26T09:03:31.546Z,77839.19
2023-01-26T09:06:01.928Z,77818.00
2023-01-26T09:08:28.785Z,77812.22
2023-01-26T09:10:55.986Z,77821.84
2023-01-26T09:13:22.799Z,77812.22
2023-01-26T09:15:49.472Z,77810.28
2023-01-26T09:18:16.376Z,77810.28
2023-01-26T09:20:42.968Z,77814.13
2023-01-26T09:23:10.239Z,77796.78
2023-01-26T09:25:37.536Z,77785.22
2023-01-26T09:28:05.677Z,77816.06
2023-01-26T09:30:33.023Z,77812.22
2023-01-26T09:33:04.859Z,77821.84
2023-01-26T09:35:31.629Z,77819.91
2023-01-26T09:37:58.217Z,77806.44
2023-01-26T09:41:15.983Z,77800.66
2023-01-26T09:43:55.172Z,77791.00
2023-01-26T09:46:24.174Z,77804.50
2023-01-26T09:49:13.681Z,77785.22
2023-01-26T09:51:48.555Z,77781.38
2023-01-26T09:54:36.607Z,77781.38
2023-01-26T09:57:12.634Z,77789.06
2023-01-26T09:59:46.581Z,77771.72
2023-01-26T10:02:13.113Z,77762.09
2023-01-26T10:04:45.381Z,77758.22
2023-01-26T10:07:13.988Z,77744.75
2023-01-26T10:09:49.826Z,77738.97
2023-01-26T10:12:24.379Z,77735.09
2023-01-26T10:15:03.287Z,77723.53
2023-01-26T10:17:36.690Z,77742.81
2023-01-26T10:20:12.454Z,77737.03
2023-01-26T10:22:56.281Z,77737.03
2023-01-26T10:25:34.889Z,77727.38
2023-01-26T10:28:27.232Z,77719.69
2023-01-26T10:30:54.089Z,77737.03
2023-01-26T10:33:27.103Z,77725.47
2023-01-26T10:35:54.016Z,77708.13
2023-01-26T10:38:32.533Z,77721.59
2023-01-26T10:41:14.866Z,77723.53
2023-01-26T10:43:43.270Z,77713.91
2023-01-26T10:46:38.124Z,77708.13
2023-01-26T10:49:19.918Z,77694.63
2023-01-26T10:52:07.182Z,77681.13
2023-01-26T10:54:36.844Z,77665.72
2023-01-26T10:57:07.325Z,77661.84
2023-01-26T10:59:49.304Z,77648.34
2023-01-26T11:02:15.822Z,77642.56
2023-01-26T11:05:07.082Z,77646.44
2023-01-26T11:07:38.563Z,77646.44
2023-01-26T11:10:25.465Z,77654.13
2023-01-26T11:13:07.330Z,77638.72
2023-01-26T11:15:41.173Z,77625.22
2023-01-26T11:18:44.477Z,77615.59
2023-01-26T11:21:37.190Z,77596.31
2023-01-26T11:24:13.704Z,77584.75
2023-01-26T11:26:49.097Z,77577.03
2023-01-26T11:29:32.235Z,77577.03
2023-01-26T11:32:13.865Z,77571.25
2023-01-26T11:34:52.180Z,77557.75
2023-01-26T11:37:47.656Z,77553.91
2023-01-26T11:40:30.106Z,77553.91
2023-01-26T11:42:56.687Z,77567.41
2023-01-26T11:45:50.516Z,77563.53
2023-01-26T11:48:43.079Z,77557.75
2023-01-26T11:51:26.082Z,77565.47
2023-01-26T11:54:17.889Z,77559.69
2023-01-26T11:57:11.857Z,77546.19
2023-01-26T11:59:50.434Z,77550.06
2023-01-26T12:02:35.743Z,77538.47
2023-01-26T12:05:13.667Z,77538.47
2023-01-26T12:07:54.698Z,77542.34
2023-01-26T12:10:29.697Z,77530.78
2023-01-26T12:13:21.041Z,77528.84
2023-01-26T12:15:54.695Z,77530.78
2023-01-26T12:18:50.605Z,77519.22
2023-01-26T12:21:21.283Z,77517.28
2023-01-26T12:23:51.486Z,77538.47
2023-01-26T12:26:22.585Z,77534.63
2023-01-26T12:29:06.440Z,77526.91
2023-01-26T12:32:04.749Z,77530.78
2023-01-26T12:34:33.897Z,77540.41
2023-01-26T12:37:06.153Z,77546.19
2023-01-26T12:39:39.872Z,77571.25
2023-01-26T12:42:15.555Z,77563.53
2023-01-26T12:44:50.386Z,77573.19
2023-01-26T12:47:29.558Z,77569.31
2023-01-26T12:50:15.608Z,77559.69
2023-01-26T12:52:55.820Z,77567.41
2023-01-26T12:55:28.641Z,77569.31
2023-01-26T12:58:00.794Z,77569.31
2023-01-26T13:00:34.367Z,77565.47
2023-01-26T13:03:07.694Z,77553.91
2023-01-26T13:05:36.049Z,77557.75
2023-01-26T13:08:30.822Z,77550.06
2023-01-26T13:11:04.785Z,77551.97
2023-01-26T13:13:52.462Z,77553.91
2023-01-26T13:16:19.044Z,77565.47
2023-01-26T13:18:56.883Z,77565.47
2023-01-26T13:21:35.689Z,77569.31
2023-01-26T13:24:02.390Z,77573.19
2023-01-26T13:26:31.973Z,77569.31
2023-01-26T13:29:29.307Z,77565.47
2023-01-26T13:31:59.795Z,77569.31
2023-01-26T13:34:48.339Z,77573.19
2023-01-26T13:37:28.707Z,77578.97
2023-01-26T13:40:00.241Z,77588.59
2023-01-26T13:42:36.655Z,77596.31
2023-01-26T13:45:08.473Z,77596.31
2023-01-26T13:47:43.575Z,77604.03
2023-01-26T13:50:23.971Z,77596.31
2023-01-26T13:52:51.100Z,77596.31
2023-01-26T13:55:30.952Z,77596.31
2023-01-26T13:58:27.607Z,77596.31
2023-01-26T14:01:14.227Z,77600.16
2023-01-26T14:03:41.060Z,77602.09
2023-01-26T14:06:13.700Z,77600.16
2023-01-26T14:08:45.186Z,77607.88
2023-01-26T14:11:19.724Z,77602.09
2023-01-26T14:13:51.935Z,77607.88
2023-01-26T14:16:43.493Z,77607.88
2023-01-26T14:19:19.928Z,77609.81
2023-01-26T14:21:54.192Z,77604.03
2023-01-26T14:24:29.686Z,77598.25
2023-01-26T14:26:56.358Z,77602.09
2023-01-26T14:29:25.180Z,77604.03
2023-01-26T14:31:54.785Z,77607.88
2023-01-26T14:34:23.876Z,77607.88
2023-01-26T14:37:13.879Z,77607.88
2023-01-26T14:39:42.870Z,77607.88
2023-01-26T14:42:14.565Z,77615.59
2023-01-26T14:44:41.450Z,77615.59
2023-01-26T14:47:24.911Z,77607.88
2023-01-26T14:49:54.302Z,77613.66
2023-01-26T14:52:27.093Z,77611.72
2023-01-26T14:54:57.539Z,77611.72
2023-01-26T14:57:26.620Z,77613.66
2023-01-26T14:59:56.672Z,77611.72
2023-01-26T15:02:37.262Z,77611.72
2023-01-26T15:05:31.939Z,77611.72
2023-01-26T15:08:05.399Z,77611.72
2023-01-26T15:10:41.447Z,77605.94
2023-01-26T15:13:10.939Z,77615.59
2023-01-26T15:15:48.687Z,77623.31
2023-01-26T15:18:19.461Z,77631.00
2023-01-26T15:21:00.241Z,77632.94
2023-01-26T15:23:32.199Z,77634.88
2023-01-26T15:26:15.076Z,77634.88
2023-01-26T15:28:42.010Z,77640.66
2023-01-26T15:31:20.440Z,77638.72
2023-01-26T15:33:49.672Z,77650.28
2023-01-26T15:36:28.520Z,77646.44
2023-01-26T15:39:00.074Z,77650.28
2023-01-26T15:41:27.847Z,77658.00
2023-01-26T15:43:54.767Z,77661.84
2023-01-26T15:46:21.383Z,77661.84
2023-01-26T15:48:48.688Z,77661.84
2023-01-26T15:51:15.746Z,77665.72
2023-01-26T15:53:42.385Z,77658.00
2023-01-26T15:56:14.268Z,77661.84
2023-01-26T15:58:41.707Z,77659.91
2023-01-26T16:01:14.761Z,77669.56
2023-01-26T16:03:41.674Z,77667.63
2023-01-26T16:06:19.456Z,77671.50
2023-01-26T16:08:46.087Z,77671.50
2023-01-26T16:11:13.890Z,77677.28
2023-01-26T16:13:44.414Z,77669.56
2023-01-26T16:16:13.770Z,77675.34
2023-01-26T16:18:42.138Z,77671.50
2023-01-26T16:21:20.958Z,77669.56
2023-01-26T16:23:48.182Z,77673.41
2023-01-26T16:26:17.809Z,77677.28
2023-01-26T16:28:45.665Z,77677.28
2023-01-26T16:31:21.488Z,77677.28
2023-01-26T16:33:49.189Z,77684.97
2023-01-26T16:36:17.352Z,77684.97
2023-01-26T16:38:44.857Z,77684.97
2023-01-26T16:41:31.830Z,77681.13
2023-01-26T16:44:00.276Z,77681.13
2023-01-26T16:46:28.896Z,77684.97
2023-01-26T16:48:56.206Z,77677.28
2023-01-26T16:51:29.349Z,77681.13
2023-01-26T16:53:56.587Z,77677.28
2023-01-26T16:56:24.879Z,77681.13
2023-01-26T16:58:51.782Z,77681.13
2023-01-26T17:01:24.204Z,77677.28
2023-01-26T17:03:51.801Z,77683.06
2023-01-26T17:06:19.451Z,77683.06
2023-01-26T17:08:46.496Z,77677.28
2023-01-26T17:11:21.489Z,77690.75
2023-01-26T17:13:48.510Z,77688.84
2023-01-26T17:16:21.051Z,77692.69
2023-01-26T17:18:48.922Z,77696.53
2023-01-26T17:21:17.253Z,77694.63
2023-01-26T17:23:46.714Z,77696.53
2023-01-26T17:26:16.830Z,77692.69
2023-01-26T17:28:49.018Z,77692.69
2023-01-26T17:31:20.662Z,77700.41
2023-01-26T17:33:48.888Z,77704.25
2023-01-26T17:36:16.804Z,77704.25
2023-01-26T17:38:43.943Z,77708.13
2023-01-26T17:41:10.577Z,77713.91
2023-01-26T17:43:37.127Z,77704.25
2023-01-26T17:46:15.565Z,77708.13
2023-01-26T17:48:45.223Z,77710.03
2023-01-26T17:51:19.829Z,77708.13
2023-01-26T17:53:49.692Z,77710.03
2023-01-26T17:56:19.416Z,77708.13
2023-01-26T17:58:51.133Z,77711.97
2023-01-26T18:01:19.097Z,77710.03
2023-01-26T18:03:45.792Z,77708.13
2023-01-26T18:06:12.625Z,77719.69
2023-01-26T18:08:40.109Z,77723.53
2023-01-26T18:11:09.952Z,77719.69
2023-01-26T18:13:36.907Z,77719.69
2023-01-26T18:16:06.156Z,77719.69
2023-01-26T18:18:32.889Z,77723.53
2023-01-26T18:21:16.830Z,77727.38
2023-01-26T18:23:48.219Z,77719.69
2023-01-26T18:26:16.899Z,77708.13
2023-01-26T18:28:44.233Z,77715.81
2023-01-26T18:31:17.013Z,77719.69
2023-01-26T18:33:44.362Z,77719.69
2023-01-26T18:36:12.653Z,77729.31
2023-01-26T18:38:40.306Z,77731.25
2023-01-26T18:41:14.991Z,77731.25
2023-01-26T18:43:42.986Z,77735.09
2023-01-26T18:46:10.912Z,77738.97
2023-01-26T18:48:37.827Z,77735.09
2023-01-26T18:51:05.076Z,77737.03
2023-01-26T18:53:31.659Z,77738.97
2023-01-26T18:56:12.480Z,77738.97
2023-01-26T18:58:40.050Z,77744.75
2023-01-26T19:01:10.477Z,77738.97
2023-01-26T19:03:38.459Z,77746.66
2023-01-26T19:06:06.055Z,77737.03
2023-01-26T19:08:34.307Z,77748.59
2023-01-26T19:11:08.196Z,77750.53
2023-01-26T19:13:35.822Z,77746.66
2023-01-26T19:16:02.694Z,77750.53
2023-01-26T19:18:29.443Z,77754.38
2023-01-26T19:21:01.550Z,77756.31
2023-01-26T19:23:28.754Z,77750.53
2023-01-26T19:25:55.602Z,77746.66
2023-01-26T19:28:22.265Z,77748.59
2023-01-26T19:30:48.881Z,77750.53
2023-01-26T19:33:24.510Z,77742.81
2023-01-26T19:35:54.663Z,77754.38
2023-01-26T19:38:21.534Z,77754.38
2023-01-26T19:40:50.127Z,77746.66
2023-01-26T19:43:19.091Z,77750.53
2023-01-26T19:45:50.585Z,77750.53
2023-01-26T19:48:17.246Z,77756.31
2023-01-26T19:50:43.860Z,77754.38
2023-01-26T19:53:11.164Z,77762.09
2023-01-26T19:55:37.738Z,77760.16
2023-01-26T19:58:04.323Z,77765.94
2023-01-26T20:00:30.994Z,77765.94
2023-01-26T20:02:57.715Z,77764.03
2023-01-26T20:05:24.360Z,77764.03
2023-01-26T20:07:51.020Z,77769.81
2023-01-26T20:10:17.645Z,77767.88
2023-01-26T20:12:44.273Z,77762.09
2023-01-26T20:15:12.458Z,77765.94
2023-01-26T20:17:39.189Z,77773.66
2023-01-26T20:20:06.402Z,77769.81
2023-01-26T20:22:34.158Z,77771.72
2023-01-26T20:25:00.876Z,77767.88
2023-01-26T20:27:29.279Z,77769.81
2023-01-26T20:29:56.259Z,77773.66
2023-01-26T20:32:22.966Z,77777.50
2023-01-26T20:34:49.907Z,77771.72
2023-01-26T20:37:16.564Z,77773.66
2023-01-26T20:39:46.654Z,77781.38
2023-01-26T20:42:16.555Z,77777.50
2023-01-26T20:44:43.533Z,77777.50
2023-01-26T20:47:10.792Z,77781.38
2023-01-26T20:49:37.461Z,77771.72
2023-01-26T20:52:07.653Z,77773.66
2023-01-26T20:54:37.637Z,77777.50
2023-01-26T20:57:04.225Z,77777.50
2023-01-26T20:59:31.078Z,77777.50
2023-01-26T21:01:57.762Z,77765.94
2023-01-26T21:04:24.414Z,77765.94
2023-01-26T21:06:51.070Z,77765.94
2023-01-26T21:09:17.758Z,77767.88
2023-01-26T21:11:44.316Z,77765.94
2023-01-26T21:14:13.505Z,77765.94
2023-01-26T21:16:40.386Z,77762.09
2023-01-26T21:19:07.113Z,77765.94
2023-01-26T21:21:33.870Z,77769.81
2023-01-26T21:24:00.588Z,77771.72
2023-01-26T21:26:27.892Z,77779.44
2023-01-26T21:28:56.813Z,77785.22
2023-01-26T21:31:25.603Z,77781.38
2023-01-26T21:33:53.210Z,77785.22
2023-01-26T21:36:22.440Z,77789.06
2023-01-26T21:38:51.972Z,77789.06
2023-01-26T21:41:40.238Z,77792.94
2023-01-26T21:44:06.785Z,77779.44
2023-01-26T21:46:33.643Z,77781.38
2023-01-26T21:49:00.541Z,77785.22
2023-01-26T21:51:46.540Z,77787.16
2023-01-26T21:54:14.151Z,77791.00
2023-01-26T21:56:40.882Z,77796.78
2023-01-26T21:59:10.556Z,77796.78
2023-01-26T22:01:39.554Z,77789.06
2023-01-26T22:04:08.654Z,77792.94
2023-01-26T22:06:37.194Z,77796.78
2023-01-26T22:09:05.300Z,77796.78
2023-01-26T22:11:32.370Z,77804.50
2023-01-26T22:13:59.102Z,77802.56
2023-01-26T22:16:26.292Z,77796.78
2023-01-26T22:18:52.874Z,77804.50
2023-01-26T22:21:20.228Z,77812.22
2023-01-26T22:23:47.175Z,77804.50
2023-01-26T22:26:19.615Z,77812.22
2023-01-26T22:28:52.833Z,77808.34
2023-01-26T22:31:22.881Z,77812.22
2023-01-26T22:33:50.370Z,77808.34
2023-01-26T22:36:17.223Z,77802.56
2023-01-26T22:38:43.865Z,77800.66
2023-01-26T22:41:21.171Z,77796.78
2023-01-26T22:43:49.039Z,77796.78
2023-01-26T22:46:17.525Z,77800.66
2023-01-26T22:48:44.421Z,77796.78
2023-01-26T22:51:18.166Z,77792.94
2023-01-26T22:53:45.208Z,77796.78
2023-01-26T22:56:12.353Z,77789.06
2023-01-26T22:58:56.618Z,77794.88
2023-01-26T23:01:25.018Z,77792.94
2023-01-26T23:03:53.476Z,77789.06
2023-01-26T23:06:20.553Z,77792.94
2023-01-26T23:08:47.412Z,77789.06
2023-01-26T23:11:23.429Z,77789.06
2023-01-26T23:13:51.879Z,77785.22
2023-01-26T23:16:18.854Z,77785.22
2023-01-26T23:18:45.738Z,77779.44
2023-01-26T23:21:12.382Z,77773.66
2023-01-26T23:23:40.964Z,77777.50
2023-01-26T23:26:08.699Z,77779.44
2023-01-26T23:28:38.021Z,77779.44
2023-01-26T23:31:05.104Z,77781.38
2023-01-26T23:33:33.969Z,77773.66
2023-01-26T23:36:00.913Z,77777.50
2023-01-26T23:38:29.076Z,77777.50
2023-01-26T23:40:56.339Z,77775.59
2023-01-26T23:43:23.616Z,77777.50
2023-01-26T23:45:50.838Z,77777.50
2023-01-26T23:48:18.127Z,77773.66
2023-01-26T23:50:45.058Z,77777.50
2023-01-26T23:53:12.302Z,77775.59
2023-01-26T23:55:43.104Z,77777.50
2023-01-26T23:58:11.157Z,77779.44
